createdAt,value
2023-04-29T00:00:13.802Z,18.33
2023-04-29T00:02:43.715Z,17.53
2023-04-29T00:05:14.152Z,14.90
2023-04-29T00:07:43.520Z,16.97
2023-04-29T00:10:15.112Z,17.73
2023-04-29T00:12:44.349Z,17.00
2023-04-29T00:15:13.755Z,14.57
2023-04-29T00:17:43.033Z,15.10
2023-04-29T00:20:13.483Z,17.17
2023-04-29T00:22:42.842Z,18.60
2023-04-29T00:25:13.974Z,21.47
2023-04-29T00:27:43.160Z,15.57
2023-04-29T00:30:13.104Z,18.33
2023-04-29T00:32:42.465Z,18.30
2023-04-29T00:35:11.968Z,16.47
2023-04-29T00:37:41.233Z,16.40
2023-04-29T00:40:15.471Z,16.33
2023-04-29T00:42:46.298Z,13.63
2023-04-29T00:45:15.390Z,15.77
2023-04-29T00:47:45.146Z,15.87
2023-04-29T00:50:14.482Z,17.07
2023-04-29T00:52:44.656Z,15.23
2023-04-29T00:55:14.531Z,13.57
2023-04-29T00:57:43.978Z,14.70
2023-04-29T01:00:16.517Z,14.03
2023-04-29T01:02:46.446Z,16.63
2023-04-29T01:05:16.444Z,14.33
2023-04-29T01:07:56.129Z,12.67
2023-04-29T01:10:29.978Z,12.50
2023-04-29T01:13:07.252Z,13.03
2023-04-29T01:15:46.162Z,16.17
2023-04-29T01:18:23.880Z,14.50
2023-04-29T01:20:54.190Z,16.97
2023-04-29T01:23:28.549Z,19.57
2023-04-29T01:25:58.835Z,15.50
2023-04-29T01:28:53.105Z,16.30
2023-04-29T01:31:28.922Z,15.70
2023-04-29T01:34:06.817Z,13.87
2023-04-29T01:36:45.494Z,18.80
2023-04-29T01:39:21.343Z,16.10
2023-04-29T01:42:00.338Z,14.57
2023-04-29T01:44:34.431Z,12.23
2023-04-29T01:47:04.981Z,12.30
2023-04-29T01:49:41.605Z,14.87
2023-04-29T01:52:10.718Z,12.53
2023-04-29T01:54:43.163Z,13.37
2023-04-29T01:57:12.596Z,13.50
2023-04-29T01:59:53.872Z,14.37
2023-04-29T02:02:42.452Z,12.47
2023-04-29T02:05:32.689Z,15.57
2023-04-29T02:08:03.400Z,12.93
2023-04-29T02:10:36.180Z,17.47
2023-04-29T02:13:25.643Z,14.73
2023-04-29T02:15:54.878Z,14.23
2023-04-29T02:18:24.053Z,12.20
2023-04-29T02:20:54.500Z,16.47
2023-04-29T02:23:23.619Z,11.47
2023-04-29T02:25:54.413Z,13.97
2023-04-29T02:28:26.951Z,12.50
2023-04-29T02:30:56.125Z,13.77
2023-04-29T02:33:25.558Z,11.87
2023-04-29T02:35:54.680Z,12.67
2023-04-29T02:38:24.936Z,13.90
2023-04-29T02:40:55.594Z,13.27
2023-04-29T02:43:24.684Z,15.63
2023-04-29T02:45:54.106Z,15.60
2023-04-29T02:48:23.531Z,12.33
2023-04-29T02:50:53.098Z,15.93
2023-04-29T02:53:22.396Z,15.10
2023-04-29T02:55:51.547Z,14.13
2023-04-29T02:58:22.235Z,15.47
2023-04-29T03:00:51.429Z,11.73
2023-04-29T03:03:20.768Z,11.63
2023-04-29T03:05:50.521Z,11.57
2023-04-29T03:08:19.754Z,11.87
2023-04-29T03:10:49.177Z,14.17
2023-04-29T03:13:18.417Z,14.30
2023-04-29T03:15:49.360Z,14.80
2023-04-29T03:18:18.663Z,11.73
2023-04-29T03:20:47.795Z,14.80
2023-04-29T03:23:17.437Z,12.03
2023-04-29T03:25:46.696Z,11.73
2023-04-29T03:28:16.371Z,11.37
2023-04-29T03:30:45.638Z,11.47
2023-04-29T03:33:16.644Z,11.80
2023-04-29T03:35:45.984Z,10.47
2023-04-29T03:38:18.200Z,10.73
2023-04-29T03:40:48.279Z,9.87
2023-04-29T03:43:19.056Z,10.97
2023-04-29T03:45:48.367Z,11.27
2023-04-29T03:48:22.149Z,10.20
2023-04-29T03:50:51.468Z,11.67
2023-04-29T03:53:21.119Z,12.00
2023-04-29T03:55:50.313Z,10.80
2023-04-29T03:58:19.838Z,10.63
2023-04-29T04:00:49.257Z,9.77
2023-04-29T04:03:28.037Z,11.63
2023-04-29T04:05:59.137Z,8.97
2023-04-29T04:08:28.368Z,9.83
2023-04-29T04:11:03.460Z,11.67
2023-04-29T04:13:38.932Z,9.70
2023-04-29T04:16:08.709Z,8.23
2023-04-29T04:18:39.840Z,9.93
2023-04-29T04:21:09.709Z,12.50
2023-04-29T04:23:41.650Z,8.67
2023-04-29T04:26:13.218Z,10.37
2023-04-29T04:29:05.800Z,11.13
2023-04-29T04:31:47.760Z,7.90
2023-04-29T04:34:19.950Z,11.80
2023-04-29T04:36:51.775Z,7.17
2023-04-29T04:39:20.860Z,13.33
2023-04-29T04:41:50.555Z,10.00
2023-04-29T04:44:19.854Z,7.83
2023-04-29T04:47:21.311Z,8.27
2023-04-29T04:50:02.767Z,7.23
2023-04-29T04:52:32.272Z,8.60
2023-04-29T04:55:16.806Z,7.53
2023-04-29T04:57:48.532Z,7.93
2023-04-29T05:00:18.288Z,12.57
2023-04-29T05:02:47.701Z,10.67
2023-04-29T05:05:18.690Z,6.33
2023-04-29T05:07:48.121Z,6.53
2023-04-29T05:10:17.988Z,7.20
2023-04-29T05:12:51.484Z,7.33
2023-04-29T05:15:21.965Z,7.27
2023-04-29T05:17:53.793Z,7.40
2023-04-29T05:20:25.173Z,6.73
2023-04-29T05:22:54.452Z,6.50
2023-04-29T05:25:24.437Z,10.87
2023-04-29T05:27:54.275Z,7.33
2023-04-29T05:30:24.353Z,7.40
2023-04-29T05:32:53.763Z,7.00
2023-04-29T05:35:26.059Z,7.60
2023-04-29T05:37:57.082Z,8.43
2023-04-29T05:40:46.648Z,7.35
2023-04-29T05:43:35.557Z,10.45
2023-04-29T05:46:06.545Z,10.80
2023-04-29T05:48:35.887Z,6.72
2023-04-29T05:51:06.828Z,10.60
2023-04-29T05:53:38.535Z,7.13
2023-04-29T05:56:08.848Z,6.07
2023-04-29T05:58:39.256Z,7.18
2023-04-29T06:01:08.660Z,10.85
2023-04-29T06:03:38.173Z,6.25
2023-04-29T06:06:27.244Z,7.82
2023-04-29T06:09:23.825Z,6.30
2023-04-29T06:11:56.687Z,8.35
2023-04-29T06:14:26.445Z,10.40
2023-04-29T06:16:56.623Z,5.85
2023-04-29T06:19:27.088Z,7.05
2023-04-29T06:21:58.996Z,7.82
2023-04-29T06:24:28.252Z,6.53
2023-04-29T06:26:59.251Z,8.90
2023-04-29T06:29:29.075Z,6.68
2023-04-29T06:31:58.339Z,8.52
2023-04-29T06:34:27.883Z,6.00
2023-04-29T06:37:27.928Z,10.02
2023-04-29T06:40:29.980Z,7.85
2023-04-29T06:43:31.346Z,7.00
2023-04-29T06:46:33.198Z,6.03
2023-04-29T06:49:18.569Z,6.25
2023-04-29T06:51:47.798Z,7.95
2023-04-29T06:54:18.814Z,11.20
2023-04-29T06:56:48.515Z,6.75
2023-04-29T06:59:20.198Z,7.30
2023-04-29T07:01:50.000Z,8.70
2023-04-29T07:04:22.359Z,10.45
2023-04-29T07:06:51.680Z,5.82
2023-04-29T07:09:23.900Z,6.22
2023-04-29T07:11:53.139Z,9.25
2023-04-29T07:14:24.128Z,5.90
2023-04-29T07:16:56.351Z,6.13
2023-04-29T07:19:26.390Z,5.22
2023-04-29T07:21:55.741Z,4.93
2023-04-29T07:24:26.825Z,6.10
2023-04-29T07:26:56.524Z,4.47
2023-04-29T07:29:25.893Z,6.45
2023-04-29T07:31:55.236Z,5.55
2023-04-29T07:34:24.693Z,10.63
2023-04-29T07:36:54.058Z,7.32
2023-04-29T07:39:23.575Z,5.82
2023-04-29T07:42:00.327Z,5.00
2023-04-29T07:44:29.801Z,7.72
2023-04-29T07:46:59.667Z,5.28
2023-04-29T07:49:30.668Z,5.80
2023-04-29T07:52:00.526Z,5.18
2023-04-29T07:54:29.809Z,5.97
2023-04-29T07:57:03.808Z,8.30
2023-04-29T07:59:33.610Z,5.00
2023-04-29T08:02:04.410Z,3.85
2023-04-29T08:04:34.132Z,4.43
2023-04-29T08:07:11.011Z,5.55
2023-04-29T08:09:40.291Z,6.65
2023-04-29T08:12:13.650Z,5.07
2023-04-29T08:14:43.189Z,5.22
2023-04-29T08:17:12.533Z,4.05
2023-04-29T08:19:41.790Z,7.35
2023-04-29T08:22:12.521Z,6.38
2023-04-29T08:24:43.084Z,5.35
2023-04-29T08:27:13.807Z,5.50
2023-04-29T08:29:43.359Z,5.13
2023-04-29T08:32:13.164Z,6.35
2023-04-29T08:34:42.612Z,6.88
2023-04-29T08:37:11.872Z,5.97
2023-04-29T08:39:40.975Z,5.95
2023-04-29T08:42:12.596Z,8.65
2023-04-29T08:44:42.491Z,4.68
2023-04-29T08:47:12.065Z,6.28
2023-04-29T08:49:42.747Z,4.65
2023-04-29T08:52:11.908Z,7.03
2023-04-29T08:54:41.587Z,5.47
2023-04-29T08:57:14.773Z,6.18
2023-04-29T08:59:44.306Z,4.45
2023-04-29T09:02:18.901Z,5.57
2023-04-29T09:04:55.115Z,10.25
2023-04-29T09:07:25.322Z,7.00
2023-04-29T09:09:55.486Z,5.80
2023-04-29T09:12:26.450Z,5.65
2023-04-29T09:14:56.384Z,7.65
2023-04-29T09:17:43.521Z,4.32
2023-04-29T09:20:29.569Z,5.72
2023-04-29T09:23:01.541Z,6.82
2023-04-29T09:25:31.849Z,7.82
2023-04-29T09:28:17.569Z,6.22
2023-04-29T09:30:50.943Z,4.18
2023-04-29T09:33:20.113Z,4.00
2023-04-29T09:35:49.643Z,5.95
2023-04-29T09:38:19.535Z,7.63
2023-04-29T09:40:58.961Z,5.53
2023-04-29T09:43:30.959Z,4.32
2023-04-29T09:46:00.269Z,9.23
2023-04-29T09:48:35.688Z,7.65
2023-04-29T09:51:05.163Z,5.53
2023-04-29T09:53:38.270Z,5.55
2023-04-29T09:56:08.287Z,8.05
2023-04-29T09:58:39.291Z,5.82
2023-04-29T10:01:09.739Z,5.30
2023-04-29T10:03:40.203Z,5.07
2023-04-29T10:06:09.970Z,9.67
2023-04-29T10:08:41.722Z,5.07
2023-04-29T10:11:13.405Z,7.13
2023-04-29T10:13:45.090Z,3.78
2023-04-29T10:16:26.635Z,5.63
2023-04-29T10:18:57.667Z,8.52
2023-04-29T10:21:31.711Z,7.38
2023-04-29T10:24:03.959Z,6.97
2023-04-29T10:26:33.831Z,4.10
2023-04-29T10:29:07.167Z,5.28
2023-04-29T10:31:38.169Z,4.15
2023-04-29T10:34:07.905Z,4.65
2023-04-29T10:36:38.952Z,7.05
2023-04-29T10:39:17.325Z,4.78
2023-04-29T10:41:48.410Z,5.88
2023-04-29T10:44:19.246Z,5.45
2023-04-29T10:46:48.692Z,6.90
2023-04-29T10:49:17.949Z,4.53
2023-04-29T10:51:47.686Z,4.03
2023-04-29T10:54:19.230Z,4.82
2023-04-29T10:56:50.817Z,6.78
2023-04-29T10:59:44.562Z,6.75
2023-04-29T11:02:16.173Z,8.73
2023-04-29T11:05:09.946Z,6.18
2023-04-29T11:07:39.296Z,5.95
2023-04-29T11:10:09.794Z,5.05
2023-04-29T11:12:39.105Z,5.78
2023-04-29T11:15:11.711Z,7.10
2023-04-29T11:17:41.629Z,7.55
2023-04-29T11:20:15.203Z,4.72
2023-04-29T11:22:52.255Z,4.25
2023-04-29T11:25:21.727Z,4.63
2023-04-29T11:27:55.812Z,7.95
2023-04-29T11:30:27.558Z,6.13
2023-04-29T11:32:57.093Z,9.00
2023-04-29T11:35:26.727Z,6.47
2023-04-29T11:37:56.868Z,6.00
2023-04-29T11:40:26.605Z,6.10
2023-04-29T11:42:55.916Z,4.38
2023-04-29T11:45:27.254Z,6.03
2023-04-29T11:47:56.836Z,5.75
2023-04-29T11:50:26.331Z,6.20
2023-04-29T11:52:56.008Z,5.50
2023-04-29T11:55:25.296Z,7.03
2023-04-29T11:57:54.558Z,6.18
2023-04-29T12:00:24.159Z,5.78
2023-04-29T12:02:55.312Z,5.00
2023-04-29T12:05:27.616Z,4.13
2023-04-29T12:07:57.512Z,7.00
2023-04-29T12:10:26.913Z,5.10
2023-04-29T12:12:56.333Z,5.20
2023-04-29T12:15:25.867Z,6.68
2023-04-29T12:17:56.987Z,4.93
2023-04-29T12:20:26.658Z,6.13
2023-04-29T12:22:56.220Z,4.10
2023-04-29T12:25:28.923Z,6.50
2023-04-29T12:28:01.480Z,7.43
2023-04-29T12:30:31.021Z,4.80
2023-04-29T12:33:01.950Z,6.93
2023-04-29T12:35:31.990Z,5.20
2023-04-29T12:38:01.647Z,7.25
2023-04-29T12:40:31.126Z,6.00
2023-04-29T12:43:08.238Z,4.70
2023-04-29T12:45:37.478Z,4.88
2023-04-29T12:48:15.115Z,7.03
2023-04-29T12:50:55.403Z,4.35
2023-04-29T12:53:24.784Z,4.47
2023-04-29T12:55:54.655Z,5.55
2023-04-29T12:58:24.186Z,4.10
2023-04-29T13:00:53.780Z,7.70
2023-04-29T13:03:25.231Z,5.78
2023-04-29T13:05:55.228Z,3.97
2023-04-29T13:08:24.562Z,4.05
2023-04-29T13:10:54.000Z,5.35
2023-04-29T13:13:23.386Z,5.25
2023-04-29T13:15:53.383Z,5.13
2023-04-29T13:18:24.320Z,5.35
2023-04-29T13:20:53.989Z,6.22
2023-04-29T13:23:23.295Z,5.28
2023-04-29T13:25:52.850Z,5.28
2023-04-29T13:28:22.589Z,6.40
2023-04-29T13:30:52.671Z,6.07
2023-04-29T13:33:22.019Z,4.03
2023-04-29T13:35:53.005Z,5.28
2023-04-29T13:38:22.954Z,7.65
2023-04-29T13:40:54.749Z,6.28
2023-04-29T13:43:33.942Z,5.63
2023-04-29T13:46:07.836Z,5.80
2023-04-29T13:57:04.792Z,5.97
2023-04-29T14:02:21.450Z,5.72
2023-04-29T14:04:28.680Z,5.25
2023-04-29T14:06:59.559Z,5.63
2023-04-29T14:09:28.987Z,4.93
2023-04-29T14:11:58.287Z,6.90
2023-04-29T14:14:27.572Z,6.80
2023-04-29T14:16:56.920Z,7.10
2023-04-29T14:19:26.378Z,5.28
2023-04-29T14:21:55.888Z,5.32
2023-04-29T14:24:26.687Z,5.03
2023-04-29T14:26:56.298Z,7.28
2023-04-29T14:29:25.642Z,6.55
2023-04-29T14:31:55.383Z,5.68
2023-04-29T14:34:25.130Z,5.68
2023-04-29T14:36:54.316Z,6.93
2023-04-29T14:39:23.903Z,5.35
2023-04-29T14:41:54.690Z,5.28
2023-04-29T14:44:24.095Z,3.88
2023-04-29T14:46:53.733Z,6.22
2023-04-29T14:49:22.963Z,5.05
2023-04-29T14:51:52.276Z,5.97
2023-04-29T14:54:21.579Z,5.65
2023-04-29T14:56:51.080Z,4.97
2023-04-29T14:59:22.094Z,7.07
2023-04-29T15:01:51.368Z,4.45
2023-04-29T15:04:20.652Z,4.78
2023-04-29T15:06:51.089Z,6.63
2023-04-29T15:09:20.455Z,7.68
2023-04-29T15:11:50.279Z,4.97
2023-04-29T15:14:20.946Z,6.82
2023-04-29T15:16:50.475Z,6.55
2023-04-29T15:19:20.537Z,4.95
2023-04-29T15:21:49.712Z,8.05
2023-04-29T15:24:19.762Z,6.32
2023-04-29T15:26:49.093Z,5.72
2023-04-29T15:29:18.472Z,5.20
2023-04-29T15:31:49.388Z,6.65
2023-04-29T15:34:18.798Z,5.85
2023-04-29T15:36:48.285Z,4.63
2023-04-29T15:39:17.967Z,5.28
2023-04-29T15:41:47.222Z,5.97
2023-04-29T15:44:16.528Z,5.65
2023-04-29T15:46:45.655Z,4.05
2023-04-29T15:49:16.466Z,5.20
2023-04-29T15:51:45.588Z,4.55
2023-04-29T15:54:14.857Z,4.97
2023-04-29T15:56:44.225Z,6.22
2023-04-29T15:59:13.735Z,5.05
2023-04-29T16:01:43.126Z,6.40
2023-04-29T16:04:12.504Z,5.43
2023-04-29T16:06:43.466Z,6.53
2023-04-29T16:09:13.080Z,4.25
2023-04-29T16:11:43.027Z,5.90
2023-04-29T16:14:12.779Z,5.90
2023-04-29T16:16:43.101Z,7.50
2023-04-29T16:19:12.376Z,5.32
2023-04-29T16:21:45.822Z,6.65
2023-04-29T16:24:15.323Z,6.63
2023-04-29T16:26:44.539Z,4.70
2023-04-29T16:29:13.891Z,5.95
2023-04-29T16:31:43.932Z,5.63
2023-04-29T16:34:13.918Z,4.18
2023-04-29T16:36:44.693Z,6.20
2023-04-29T16:39:14.148Z,6.47
2023-04-29T16:41:43.420Z,5.40
2023-04-29T16:44:13.250Z,4.60
2023-04-29T16:46:42.765Z,6.70
2023-04-29T16:49:12.680Z,5.55
2023-04-29T16:51:43.602Z,6.20
2023-04-29T16:54:13.041Z,5.18
2023-04-29T16:56:42.361Z,5.93
2023-04-29T16:59:12.767Z,5.80
2023-04-29T17:01:42.355Z,6.47
2023-04-29T17:04:12.388Z,6.50
2023-04-29T17:06:42.014Z,4.18
2023-04-29T17:09:12.880Z,8.88
2023-04-29T17:11:42.287Z,5.05
2023-04-29T17:14:11.712Z,5.38
2023-04-29T17:16:41.076Z,8.73
2023-04-29T17:19:10.629Z,6.38
2023-04-29T17:21:40.214Z,8.57
2023-04-29T17:24:09.492Z,5.80
2023-04-29T17:26:40.376Z,6.60
2023-04-29T17:29:12.411Z,7.72
2023-04-29T17:31:54.997Z,9.38
2023-04-29T17:34:26.107Z,6.40
2023-04-29T17:36:55.848Z,6.00
2023-04-29T17:39:26.082Z,7.10
2023-04-29T17:41:57.551Z,6.13
2023-04-29T17:44:27.468Z,5.32
2023-04-29T17:46:57.115Z,5.50
2023-04-29T17:49:26.538Z,5.45
2023-04-29T17:51:56.374Z,8.13
2023-04-29T17:54:26.519Z,7.22
2023-04-29T17:56:57.878Z,9.02
2023-04-29T17:59:27.285Z,7.78
2023-04-29T18:01:57.203Z,8.02
2023-04-29T18:04:26.708Z,6.28
2023-04-29T18:06:56.903Z,7.70
2023-04-29T18:09:26.860Z,5.35
2023-04-29T18:12:02.613Z,6.40
2023-04-29T18:14:32.314Z,5.90
2023-04-29T18:17:02.074Z,6.18
2023-04-29T18:19:31.561Z,7.07
2023-04-29T18:22:03.003Z,6.15
2023-04-29T18:24:32.284Z,5.80
2023-04-29T18:27:03.231Z,6.13
2023-04-29T18:29:32.464Z,7.15
2023-04-29T18:32:02.029Z,6.30
2023-04-29T18:34:32.162Z,6.93
2023-04-29T18:37:02.182Z,6.55
2023-04-29T18:39:31.418Z,7.82
2023-04-29T18:42:00.798Z,5.40
2023-04-29T18:44:31.650Z,6.50
2023-04-29T18:47:01.076Z,6.87
2023-04-29T18:49:30.613Z,5.90
2023-04-29T18:52:01.499Z,5.50
2023-04-29T18:54:31.143Z,5.68
2023-04-29T18:57:01.655Z,5.97
2023-04-29T18:59:36.030Z,6.80
2023-04-29T19:02:06.662Z,8.13
2023-04-29T19:04:37.013Z,7.30
2023-04-29T19:07:10.344Z,7.22
2023-04-29T19:09:39.989Z,6.73
2023-04-29T19:12:10.049Z,7.17
2023-04-29T19:14:40.810Z,13.13
2023-04-29T19:17:10.802Z,7.43
2023-04-29T19:19:40.498Z,10.27
2023-04-29T19:22:10.208Z,10.43
2023-04-29T19:24:42.613Z,8.23
2023-04-29T19:27:12.356Z,13.03
2023-04-29T19:29:44.064Z,7.43
2023-04-29T19:32:14.203Z,7.13
2023-04-29T19:34:43.931Z,9.33
2023-04-29T19:37:13.552Z,8.20
2023-04-29T19:39:43.038Z,8.77
2023-04-29T19:42:13.909Z,9.10
2023-04-29T19:44:45.992Z,7.27
2023-04-29T19:47:15.283Z,7.90
2023-04-29T19:49:45.522Z,8.53
2023-04-29T19:52:15.292Z,9.50
2023-04-29T19:54:44.615Z,10.13
2023-04-29T19:57:14.683Z,10.13
2023-04-29T19:59:45.736Z,10.13
2023-04-29T20:02:17.922Z,9.83
2023-04-29T20:04:48.823Z,12.47
2023-04-29T20:07:18.168Z,7.83
2023-04-29T20:09:48.524Z,9.97
2023-04-29T20:12:18.217Z,13.00
2023-04-29T20:14:49.286Z,9.20
2023-04-29T20:17:19.267Z,11.20
2023-04-29T20:19:48.716Z,9.30
2023-04-29T20:22:18.040Z,11.87
2023-04-29T20:24:47.549Z,10.40
2023-04-29T20:27:16.943Z,10.10
2023-04-29T20:29:46.693Z,8.53
2023-04-29T20:32:18.183Z,12.00
2023-04-29T20:34:47.609Z,12.13
2023-04-29T20:37:17.753Z,11.53
2023-04-29T20:39:47.541Z,15.17
2023-04-29T20:42:17.179Z,11.17
2023-04-29T20:44:46.936Z,8.90
2023-04-29T20:47:17.921Z,10.23
2023-04-29T20:49:47.253Z,10.57
2023-04-29T20:52:16.694Z,10.87
2023-04-29T20:54:46.079Z,10.73
2023-04-29T20:57:15.359Z,16.83
2023-04-29T20:59:44.516Z,11.73
2023-04-29T21:02:13.979Z,10.17
2023-04-29T21:04:44.895Z,10.73
2023-04-29T21:07:14.397Z,13.87
2023-04-29T21:09:43.866Z,10.80
2023-04-29T21:12:15.116Z,10.90
2023-04-29T21:14:44.690Z,10.70
2023-04-29T21:17:13.965Z,11.17
2023-04-29T21:19:44.703Z,10.03
2023-04-29T21:22:13.871Z,11.27
2023-04-29T21:24:43.405Z,12.87
2023-04-29T21:27:12.842Z,11.17
2023-04-29T21:29:42.776Z,11.90
2023-04-29T21:32:12.235Z,15.93
2023-04-29T21:34:41.724Z,11.43
2023-04-29T21:37:12.445Z,10.67
2023-04-29T21:39:41.658Z,12.67
2023-04-29T21:42:11.237Z,11.70
2023-04-29T21:44:41.010Z,14.83
2023-04-29T21:47:10.389Z,13.47
2023-04-29T21:49:40.045Z,12.93
2023-04-29T21:52:09.255Z,14.60
2023-04-29T21:54:40.059Z,15.67
2023-04-29T21:57:09.253Z,14.37
2023-04-29T21:59:38.448Z,13.43
2023-04-29T22:02:15.031Z,16.80
2023-04-29T22:04:44.595Z,14.23
2023-04-29T22:07:13.881Z,15.03
2023-04-29T22:09:47.486Z,17.10
2023-04-29T22:12:17.647Z,18.33
2023-04-29T22:14:47.016Z,16.30
2023-04-29T22:17:16.483Z,13.77
2023-04-29T22:19:45.810Z,14.13
2023-04-29T22:22:14.991Z,15.00
2023-04-29T22:24:45.723Z,16.10
2023-04-29T22:27:15.094Z,14.50
2023-04-29T22:29:44.221Z,17.47
2023-04-29T22:32:13.697Z,15.13
2023-04-29T22:34:43.000Z,15.53
2023-04-29T22:37:12.215Z,13.80
2023-04-29T22:39:41.647Z,16.37
2023-04-29T22:42:12.552Z,13.60
2023-04-29T22:44:41.957Z,16.37
2023-04-29T22:47:11.160Z,14.23
2023-04-29T22:49:41.112Z,17.23
2023-04-29T22:52:10.555Z,15.80
2023-04-29T22:54:39.821Z,16.07
2023-04-29T22:57:09.011Z,13.03
2023-04-29T22:59:39.736Z,12.90
2023-04-29T23:02:09.092Z,13.20
2023-04-29T23:04:38.269Z,13.13
2023-04-29T23:07:07.648Z,13.67
2023-04-29T23:09:37.020Z,12.00
2023-04-29T23:12:06.374Z,13.37
2023-04-29T23:14:35.917Z,11.90
2023-04-29T23:17:06.760Z,11.57
2023-04-29T23:19:36.119Z,11.40
2023-04-29T23:22:07.519Z,13.27
2023-04-29T23:24:36.991Z,16.00
2023-04-29T23:27:06.436Z,11.60
2023-04-29T23:29:35.800Z,12.70
2023-04-29T23:32:06.553Z,13.57
2023-04-29T23:34:35.818Z,13.97
2023-04-29T23:37:05.092Z,13.63
2023-04-29T23:39:34.356Z,13.57
2023-04-29T23:42:04.284Z,14.03
2023-04-29T23:44:33.395Z,14.13
2023-04-29T23:47:02.600Z,15.10
2023-04-29T23:49:33.431Z,14.30
2023-04-29T23:52:02.967Z,13.83
2023-04-29T23:54:32.288Z,13.73
2023-04-29T23:57:02.932Z,15.73
2023-04-29T23:59:32.121Z,15.60
